createdAt,value
2023-04-19T00:00:08.515Z,63.56
2023-04-19T00:02:31.709Z,63.54
2023-04-19T00:04:53.638Z,63.89
2023-04-19T00:07:16.942Z,63.74
2023-04-19T00:09:38.694Z,63.73
2023-04-19T00:12:01.202Z,64.12
2023-04-19T00:14:22.980Z,64.25
2023-04-19T00:16:45.823Z,63.99
2023-04-19T00:19:07.524Z,64.24
2023-04-19T00:21:29.240Z,64.02
2023-04-19T00:23:51.605Z,64.11
2023-04-19T00:26:15.649Z,64.26
2023-04-19T00:28:42.561Z,64.36
2023-04-19T00:31:04.337Z,64.49
2023-04-19T00:33:26.031Z,64.66
2023-04-19T00:35:47.844Z,64.65
2023-04-19T00:38:09.526Z,64.51
2023-04-19T00:40:32.406Z,64.71
2023-04-19T00:42:55.372Z,64.80
2023-04-19T00:45:17.018Z,64.62
2023-04-19T00:47:39.069Z,64.60
2023-04-19T00:50:00.961Z,64.80
2023-04-19T00:52:23.443Z,64.94
2023-04-19T00:54:45.919Z,64.84
2023-04-19T00:57:08.625Z,65.05
2023-04-19T00:59:31.203Z,65.25
2023-04-19T01:01:53.359Z,65.35
2023-04-19T01:04:16.607Z,65.37
2023-04-19T01:06:41.154Z,65.54
2023-04-19T01:09:05.831Z,65.19
2023-04-19T01:11:29.138Z,65.55
2023-04-19T01:13:51.356Z,65.57
2023-04-19T01:16:13.382Z,65.40
2023-04-19T01:18:37.563Z,65.68
2023-04-19T01:20:59.981Z,65.42
2023-04-19T01:23:21.727Z,65.59
2023-04-19T01:25:44.245Z,65.61
2023-04-19T01:28:06.335Z,65.55
2023-04-19T01:30:30.444Z,65.47
2023-04-19T01:32:52.094Z,65.79
2023-04-19T01:35:15.104Z,65.31
2023-04-19T01:37:37.352Z,65.39
2023-04-19T01:39:58.930Z,65.34
2023-04-19T01:42:22.917Z,65.49
2023-04-19T01:44:44.677Z,66.04
2023-04-19T01:47:06.610Z,65.96
2023-04-19T01:49:29.249Z,66.62
2023-04-19T01:51:51.082Z,66.81
2023-04-19T01:54:13.096Z,66.84
2023-04-19T01:56:36.247Z,67.02
2023-04-19T01:58:58.024Z,67.08
2023-04-19T02:01:19.824Z,67.02
2023-04-19T02:03:42.629Z,67.00
2023-04-19T02:06:04.779Z,67.47
2023-04-19T02:08:27.576Z,67.60
2023-04-19T02:10:50.209Z,67.95
2023-04-19T02:13:12.290Z,68.17
2023-04-19T02:15:34.099Z,67.82
2023-04-19T02:17:55.863Z,68.13
2023-04-19T02:20:17.562Z,67.94
2023-04-19T02:22:39.330Z,68.22
2023-04-19T02:25:01.385Z,68.42
2023-04-19T02:27:25.477Z,68.32
2023-04-19T02:29:47.096Z,68.76
2023-04-19T02:32:08.955Z,68.96
2023-04-19T02:34:34.568Z,68.70
2023-04-19T02:36:56.265Z,69.12
2023-04-19T02:39:17.966Z,69.07
2023-04-19T02:41:39.681Z,69.26
2023-04-19T02:44:02.464Z,69.12
2023-04-19T02:46:24.193Z,69.34
2023-04-19T02:48:46.730Z,69.20
2023-04-19T02:51:08.578Z,69.28
2023-04-19T02:53:32.510Z,69.36
2023-04-19T02:55:54.495Z,69.83
2023-04-19T02:58:16.100Z,69.52
2023-04-19T03:00:58.050Z,69.70
2023-04-19T03:03:19.904Z,69.66
2023-04-19T03:05:41.669Z,69.65
2023-04-19T03:08:03.397Z,69.68
2023-04-19T03:10:26.196Z,69.33
2023-04-19T03:12:47.859Z,69.67
2023-04-19T03:15:10.482Z,69.52
2023-04-19T03:17:32.339Z,69.55
2023-04-19T03:19:54.299Z,69.58
2023-04-19T03:22:16.259Z,69.68
2023-04-19T03:24:38.202Z,69.91
2023-04-19T03:27:11.296Z,70.08
2023-04-19T03:29:32.989Z,69.81
2023-04-19T03:31:58.321Z,69.55
2023-04-19T03:34:20.051Z,69.49
2023-04-19T03:36:43.677Z,69.64
2023-04-19T03:39:06.294Z,69.60
2023-04-19T03:41:28.074Z,69.57
2023-04-19T03:44:17.427Z,69.58
2023-04-19T03:46:39.993Z,69.61
2023-04-19T03:49:02.138Z,69.39
2023-04-19T03:51:25.049Z,69.41
2023-04-19T03:53:47.485Z,69.41
2023-04-19T03:56:12.224Z,69.19
2023-04-19T03:58:34.012Z,69.18
2023-04-19T04:01:01.299Z,68.99
2023-04-19T04:03:23.052Z,68.58
2023-04-19T04:05:45.320Z,68.75
2023-04-19T04:08:07.757Z,68.67
2023-04-19T04:10:29.481Z,68.36
2023-04-19T04:12:51.388Z,68.23
2023-04-19T04:15:20.659Z,68.24
2023-04-19T04:17:46.755Z,68.30
2023-04-19T04:20:09.868Z,68.08
2023-04-19T04:22:31.595Z,68.22
2023-04-19T04:24:54.159Z,68.22
2023-04-19T04:27:23.924Z,68.42
2023-04-19T04:29:49.471Z,68.27
2023-04-19T04:32:12.202Z,68.33
2023-04-19T04:34:37.340Z,68.71
2023-04-19T04:37:04.305Z,68.55
2023-04-19T04:39:26.698Z,68.49
2023-04-19T04:41:49.619Z,68.38
2023-04-19T04:44:13.089Z,68.43
2023-04-19T04:46:36.511Z,68.99
2023-04-19T04:48:58.334Z,68.74
2023-04-19T04:51:20.277Z,69.22
2023-04-19T04:53:44.624Z,69.39
2023-04-19T04:56:06.671Z,69.97
2023-04-19T04:58:28.420Z,69.75
2023-04-19T05:00:55.752Z,70.11
2023-04-19T05:03:20.037Z,69.66
2023-04-19T05:05:47.887Z,69.97
2023-04-19T05:08:09.875Z,69.47
2023-04-19T05:10:33.835Z,69.32
2023-04-19T05:12:56.224Z,68.81
2023-04-19T05:15:18.453Z,68.52
2023-04-19T05:17:45.345Z,67.88
2023-04-19T05:20:08.908Z,67.32
2023-04-19T05:22:31.220Z,66.54
2023-04-19T05:24:53.675Z,66.26
2023-04-19T05:27:15.600Z,65.41
2023-04-19T05:29:37.517Z,64.93
2023-04-19T05:31:59.965Z,64.77
2023-04-19T05:34:27.574Z,64.04
2023-04-19T05:36:51.191Z,63.92
2023-04-19T05:39:13.568Z,63.47
2023-04-19T05:41:35.304Z,62.93
2023-04-19T05:43:57.050Z,62.63
2023-04-19T05:46:20.112Z,61.74
2023-04-19T05:48:42.009Z,61.44
2023-04-19T05:51:23.688Z,61.48
2023-04-19T05:54:15.626Z,61.07
2023-04-19T05:56:40.980Z,61.07
2023-04-19T05:59:03.013Z,60.96
2023-04-19T06:01:24.833Z,61.08
2023-04-19T06:03:46.890Z,60.99
2023-04-19T06:06:08.973Z,60.34
2023-04-19T06:08:31.690Z,60.78
2023-04-19T06:10:58.410Z,60.82
2023-04-19T06:13:24.861Z,60.03
2023-04-19T06:15:48.523Z,60.64
2023-04-19T06:18:11.006Z,60.19
2023-04-19T06:20:41.618Z,59.16
2023-04-19T06:23:04.300Z,59.12
2023-04-19T06:25:26.088Z,59.52
2023-04-19T06:27:48.010Z,59.81
2023-04-19T06:30:11.150Z,59.29
2023-04-19T06:32:32.914Z,58.63
2023-04-19T06:34:54.859Z,58.49
2023-04-19T06:37:17.563Z,58.19
2023-04-19T06:39:39.785Z,57.35
2023-04-19T06:42:02.443Z,57.21
2023-04-19T06:44:24.765Z,57.00
2023-04-19T06:46:46.528Z,56.92
2023-04-19T06:49:08.266Z,55.86
2023-04-19T06:51:30.528Z,55.99
2023-04-19T06:53:52.286Z,55.54
2023-04-19T06:56:13.971Z,55.18
2023-04-19T06:58:35.875Z,55.34
2023-04-19T07:00:57.786Z,55.43
2023-04-19T07:03:21.520Z,54.61
2023-04-19T07:05:43.533Z,54.33
2023-04-19T07:08:05.425Z,54.48
2023-04-19T07:10:27.322Z,53.04
2023-04-19T07:12:49.175Z,52.66
2023-04-19T07:15:11.887Z,52.07
2023-04-19T07:17:36.168Z,51.16
2023-04-19T07:19:58.043Z,50.50
2023-04-19T07:22:19.798Z,49.62
2023-04-19T07:24:44.481Z,49.60
2023-04-19T07:27:06.195Z,49.51
2023-04-19T07:29:27.936Z,49.50
2023-04-19T07:31:49.782Z,48.95
2023-04-19T07:34:11.563Z,49.12
2023-04-19T07:36:35.096Z,46.32
2023-04-19T07:38:57.861Z,46.99
2023-04-19T07:41:19.791Z,46.99
2023-04-19T07:43:41.635Z,46.62
2023-04-19T07:46:11.028Z,45.46
2023-04-19T07:48:32.907Z,44.53
2023-04-19T07:50:54.613Z,45.12
2023-04-19T07:53:16.944Z,45.56
2023-04-19T07:55:39.583Z,44.62
2023-04-19T07:58:02.496Z,44.54
2023-04-19T08:00:24.368Z,42.08
2023-04-19T08:02:48.233Z,42.51
2023-04-19T08:05:10.448Z,42.61
2023-04-19T08:07:32.202Z,41.06
2023-04-19T08:09:54.392Z,42.48
2023-04-19T08:12:26.879Z,41.28
2023-04-19T08:15:05.242Z,41.80
2023-04-19T08:17:40.705Z,41.10
2023-04-19T08:20:06.840Z,41.12
2023-04-19T08:22:28.395Z,41.22
2023-04-19T08:24:51.989Z,42.14
2023-04-19T08:27:14.159Z,42.27
2023-04-19T08:29:36.202Z,41.92
2023-04-19T08:31:58.027Z,41.82
2023-04-19T08:34:20.120Z,39.22
2023-04-19T08:36:51.619Z,38.96
2023-04-19T08:39:31.857Z,38.86
2023-04-19T08:42:06.621Z,37.44
2023-04-19T08:44:36.374Z,37.81
2023-04-19T08:47:01.218Z,37.93
2023-04-19T08:49:23.072Z,39.06
2023-04-19T08:51:45.170Z,39.05
2023-04-19T08:54:07.758Z,38.89
2023-04-19T08:56:35.676Z,39.24
2023-04-19T08:59:19.524Z,40.49
2023-04-19T09:01:42.338Z,40.45
2023-04-19T09:04:26.304Z,39.88
2023-04-19T09:06:49.443Z,40.78
2023-04-19T09:11:46.607Z,38.86
2023-04-19T09:14:15.548Z,39.58
2023-04-19T09:16:40.336Z,39.53
2023-04-19T09:21:31.796Z,40.59
2023-04-19T09:23:53.900Z,40.15
2023-04-19T09:26:23.325Z,40.29
2023-04-19T09:29:02.172Z,39.77
2023-04-19T09:31:43.265Z,39.09
2023-04-19T09:34:18.410Z,38.51
2023-04-19T09:36:41.211Z,38.63
2023-04-19T09:39:02.940Z,38.59
2023-04-19T09:41:28.498Z,38.30
2023-04-19T09:46:37.234Z,35.43
2023-04-19T09:49:25.069Z,35.80
2023-04-19T09:51:56.212Z,35.29
2023-04-19T09:54:20.445Z,34.85
2023-04-19T09:56:43.974Z,33.84
2023-04-19T09:59:19.328Z,33.43
2023-04-19T10:02:05.092Z,32.94
2023-04-19T10:04:43.605Z,32.46
2023-04-19T10:09:49.516Z,33.14
2023-04-19T10:14:43.648Z,32.63
2023-04-19T10:17:06.160Z,33.03
2023-04-19T10:19:29.339Z,32.78
2023-04-19T10:21:51.898Z,34.01
2023-04-19T10:24:15.700Z,32.75
2023-04-19T10:27:08.701Z,32.84
2023-04-19T10:30:07.051Z,33.25
2023-04-19T10:32:39.758Z,32.58
2023-04-19T10:35:04.770Z,32.74
2023-04-19T10:37:26.750Z,33.47
2023-04-19T10:39:48.455Z,33.84
2023-04-19T10:42:10.644Z,32.71
2023-04-19T10:44:32.421Z,33.46
2023-04-19T10:46:54.833Z,33.36
2023-04-19T10:49:16.892Z,32.61
2023-04-19T10:51:43.351Z,32.71
2023-04-19T10:54:09.849Z,33.03
2023-04-19T10:56:34.519Z,33.69
2023-04-19T10:59:02.733Z,33.24
2023-04-19T11:01:45.713Z,33.01
2023-04-19T11:04:09.920Z,32.00
2023-04-19T11:06:33.609Z,32.67
2023-04-19T11:08:55.622Z,33.22
2023-04-19T11:11:17.583Z,33.24
2023-04-19T11:13:39.176Z,31.42
2023-04-19T11:16:07.649Z,31.40
2023-04-19T11:18:32.667Z,30.99
2023-04-19T11:20:55.010Z,30.94
2023-04-19T11:23:17.954Z,30.16
2023-04-19T11:25:39.743Z,30.58
2023-04-19T11:28:01.724Z,30.41
2023-04-19T11:30:32.054Z,29.19
2023-04-19T11:32:56.384Z,29.51
2023-04-19T11:35:27.901Z,30.21
2023-04-19T11:37:50.397Z,30.63
2023-04-19T11:40:19.935Z,29.92
2023-04-19T11:42:41.739Z,28.85
2023-04-19T11:45:03.867Z,27.93
2023-04-19T11:47:29.400Z,26.52
2023-04-19T11:49:51.266Z,27.54
2023-04-19T11:52:23.025Z,27.53
2023-04-19T11:54:46.827Z,27.05
2023-04-19T11:57:09.410Z,27.53
2023-04-19T11:59:35.330Z,28.34
2023-04-19T12:02:04.253Z,28.40
2023-04-19T12:04:28.448Z,27.85
2023-04-19T12:07:01.897Z,27.15
2023-04-19T12:09:24.229Z,27.49
2023-04-19T12:11:50.675Z,26.33
2023-04-19T12:14:17.092Z,26.28
2023-04-19T12:16:39.153Z,25.91
2023-04-19T12:19:18.209Z,26.61
2023-04-19T12:21:41.017Z,26.71
2023-04-19T12:24:03.733Z,26.59
2023-04-19T12:26:29.866Z,26.36
2023-04-19T12:28:51.667Z,26.63
2023-04-19T12:31:13.403Z,26.71
2023-04-19T12:33:35.326Z,26.37
2023-04-19T12:35:57.041Z,26.03
2023-04-19T12:38:18.934Z,25.70
2023-04-19T12:40:40.804Z,26.00
2023-04-19T12:43:02.963Z,26.93
2023-04-19T12:45:25.010Z,26.45
2023-04-19T12:47:48.760Z,26.90
2023-04-19T12:50:10.921Z,26.71
2023-04-19T12:52:33.801Z,26.80
2023-04-19T12:54:55.630Z,27.06
2023-04-19T12:57:17.583Z,24.81
2023-04-19T12:59:39.444Z,25.24
2023-04-19T13:02:01.696Z,26.05
2023-04-19T13:04:24.217Z,26.61
2023-04-19T13:06:46.821Z,25.97
2023-04-19T13:09:14.341Z,26.12
2023-04-19T13:11:36.823Z,26.04
2023-04-19T13:13:58.609Z,26.90
2023-04-19T13:16:21.037Z,26.38
2023-04-19T13:18:43.200Z,26.93
2023-04-19T13:21:07.452Z,27.41
2023-04-19T13:23:30.408Z,27.08
2023-04-19T13:25:52.396Z,27.12
2023-04-19T13:28:14.449Z,26.84
2023-04-19T13:30:36.353Z,27.20
2023-04-19T13:32:58.159Z,26.98
2023-04-19T13:35:20.200Z,26.36
2023-04-19T13:37:44.362Z,27.08
2023-04-19T13:40:18.779Z,27.03
2023-04-19T13:42:41.627Z,26.90
2023-04-19T13:45:03.817Z,26.72
2023-04-19T13:47:25.886Z,26.64
2023-04-19T13:49:52.149Z,25.88
2023-04-19T13:52:14.942Z,26.35
2023-04-19T13:54:36.727Z,26.82
2023-04-19T13:56:58.825Z,27.09
2023-04-19T13:59:21.956Z,27.29
2023-04-19T14:01:43.883Z,27.06
2023-04-19T14:04:06.156Z,26.77
2023-04-19T14:06:28.376Z,26.79
2023-04-19T14:08:51.412Z,26.96
2023-04-19T14:11:13.737Z,26.96
2023-04-19T14:13:35.805Z,27.15
2023-04-19T14:15:58.072Z,27.40
2023-04-19T14:18:20.266Z,27.60
2023-04-19T14:20:42.526Z,26.65
2023-04-19T14:23:04.847Z,27.30
2023-04-19T14:25:27.448Z,27.38
2023-04-19T14:27:49.400Z,27.85
2023-04-19T14:30:11.632Z,26.28
2023-04-19T14:32:33.964Z,26.66
2023-04-19T14:34:56.440Z,27.19
2023-04-19T14:37:19.463Z,27.61
2023-04-19T14:39:41.449Z,27.53
2023-04-19T14:42:03.610Z,26.88
2023-04-19T14:44:25.390Z,26.96
2023-04-19T14:46:47.568Z,27.01
2023-04-19T14:49:09.958Z,27.03
2023-04-19T14:51:33.168Z,27.18
2023-04-19T14:53:54.996Z,26.71
2023-04-19T14:56:17.305Z,27.35
2023-04-19T14:58:39.342Z,27.24
2023-04-19T15:01:11.795Z,27.18
2023-04-19T15:03:34.333Z,26.91
2023-04-19T15:05:56.409Z,27.31
2023-04-19T15:10:46.401Z,27.11
2023-04-19T15:13:08.236Z,26.87
2023-04-19T15:15:30.053Z,27.06
2023-04-19T15:17:52.774Z,27.01
2023-04-19T15:20:14.923Z,27.38
2023-04-19T15:22:37.381Z,28.01
2023-04-19T15:25:02.062Z,28.41
2023-04-19T15:27:23.892Z,28.23
2023-04-19T15:29:47.623Z,28.24
2023-04-19T15:32:09.441Z,28.52
2023-04-19T15:34:31.319Z,28.27
2023-04-19T15:36:54.162Z,28.63
2023-04-19T15:39:16.337Z,29.36
2023-04-19T15:41:38.394Z,28.13
2023-04-19T15:44:01.243Z,28.54
2023-04-19T15:46:23.299Z,29.29
2023-04-19T15:48:48.290Z,29.27
2023-04-19T15:51:11.432Z,28.24
2023-04-19T15:53:33.449Z,28.30
2023-04-19T15:55:56.730Z,28.72
2023-04-19T15:58:19.522Z,28.38
2023-04-19T16:00:41.291Z,28.92
2023-04-19T16:03:03.413Z,29.09
2023-04-19T16:05:26.021Z,27.95
2023-04-19T16:07:47.924Z,28.38
2023-04-19T16:10:11.662Z,27.48
2023-04-19T16:12:33.730Z,26.63
2023-04-19T16:14:55.521Z,27.52
2023-04-19T16:17:17.270Z,27.48
2023-04-19T16:19:38.947Z,27.97
2023-04-19T16:22:02.349Z,28.40
2023-04-19T16:24:24.088Z,28.32
2023-04-19T16:26:46.845Z,28.49
2023-04-19T16:29:08.850Z,28.50
2023-04-19T16:31:30.810Z,28.70
2023-04-19T16:33:52.595Z,29.10
2023-04-19T16:36:14.349Z,29.22
2023-04-19T16:38:36.589Z,28.92
2023-04-19T16:41:00.613Z,28.19
2023-04-19T16:43:22.522Z,27.84
2023-04-19T16:45:44.564Z,28.11
2023-04-19T16:48:06.744Z,27.11
2023-04-19T16:50:28.683Z,27.31
2023-04-19T16:52:50.591Z,28.21
2023-04-19T16:55:12.430Z,28.07
2023-04-19T16:57:34.655Z,27.81
2023-04-19T16:59:56.653Z,28.22
2023-04-19T17:02:19.504Z,28.87
2023-04-19T17:04:42.318Z,29.53
2023-04-19T17:07:04.429Z,29.11
2023-04-19T17:09:26.463Z,29.74
2023-04-19T17:11:48.151Z,29.71
2023-04-19T17:14:10.116Z,29.32
2023-04-19T17:16:31.979Z,29.15
2023-04-19T17:18:56.346Z,28.50
2023-04-19T17:21:18.141Z,28.44
2023-04-19T17:23:39.972Z,28.61
2023-04-19T17:26:01.979Z,28.55
2023-04-19T17:28:23.760Z,29.17
2023-04-19T17:30:45.817Z,29.21
2023-04-19T17:33:07.738Z,28.53
2023-04-19T17:35:29.570Z,28.19
2023-04-19T17:37:52.119Z,27.70
2023-04-19T17:40:14.269Z,27.91
2023-04-19T17:42:36.054Z,26.87
2023-04-19T17:44:58.532Z,26.59
2023-04-19T17:47:21.264Z,26.54
2023-04-19T17:49:46.105Z,27.09
2023-04-19T17:52:07.871Z,27.15
2023-04-19T17:54:30.046Z,27.14
2023-04-19T17:56:52.822Z,27.07
2023-04-19T17:59:14.776Z,27.30
2023-04-19T18:01:36.774Z,26.86
2023-04-19T18:03:59.030Z,26.78
2023-04-19T18:06:21.974Z,26.42
2023-04-19T18:08:44.029Z,26.70
2023-04-19T18:11:07.045Z,27.04
2023-04-19T18:13:28.757Z,26.71
2023-04-19T18:15:50.360Z,27.22
2023-04-19T18:18:12.025Z,27.72
2023-04-19T18:20:35.072Z,27.36
2023-04-19T18:22:59.205Z,26.85
2023-04-19T18:25:20.791Z,27.33
2023-04-19T18:27:42.522Z,27.39
2023-04-19T18:30:06.544Z,27.74
2023-04-19T18:32:30.139Z,27.87
2023-04-19T18:34:53.195Z,28.52
2023-04-19T18:37:16.946Z,28.14
2023-04-19T18:39:38.555Z,28.54
2023-04-19T18:42:01.852Z,28.81
2023-04-19T18:44:44.104Z,28.80
2023-04-19T18:47:05.368Z,29.06
2023-04-19T18:49:26.978Z,28.94
2023-04-19T18:51:50.342Z,29.38
2023-04-19T18:54:11.962Z,29.33
2023-04-19T18:58:59.802Z,29.49
2023-04-19T19:01:21.552Z,30.05
2023-04-19T19:06:08.036Z,29.97
2023-04-19T19:08:30.440Z,29.94
2023-04-19T19:13:16.588Z,30.07
2023-04-19T19:15:40.691Z,30.45
2023-04-19T19:18:03.775Z,30.44
2023-04-19T19:20:26.045Z,30.83
2023-04-19T19:22:48.441Z,30.76
2023-04-19T19:25:12.157Z,31.39
2023-04-19T19:27:35.328Z,31.00
2023-04-19T19:29:58.795Z,31.35
2023-04-19T19:32:20.674Z,31.15
2023-04-19T19:34:51.852Z,31.83
2023-04-19T19:37:16.937Z,31.87
2023-04-19T19:39:38.716Z,31.96
2023-04-19T19:42:05.367Z,32.32
2023-04-19T19:44:28.111Z,32.48
2023-04-19T19:46:49.741Z,32.34
2023-04-19T19:49:13.203Z,32.35
2023-04-19T19:53:59.943Z,32.29
2023-04-19T19:56:23.874Z,32.79
2023-04-19T19:58:50.289Z,33.01
2023-04-19T20:01:13.398Z,32.64
2023-04-19T20:03:37.953Z,33.05
2023-04-19T20:06:00.172Z,32.73
2023-04-19T20:08:23.678Z,33.16
2023-04-19T20:10:45.774Z,33.14
2023-04-19T20:13:09.076Z,33.70
2023-04-19T20:15:31.038Z,33.81
2023-04-19T20:17:52.682Z,33.94
2023-04-19T20:20:14.917Z,34.13
2023-04-19T20:22:38.117Z,34.20
2023-04-19T20:25:00.459Z,34.23
2023-04-19T20:27:22.202Z,34.57
2023-04-19T20:29:43.952Z,34.63
2023-04-19T20:32:05.974Z,34.80
2023-04-19T20:34:48.013Z,34.79
2023-04-19T20:37:30.655Z,35.01
2023-04-19T20:40:15.019Z,35.51
2023-04-19T20:42:56.777Z,35.22
2023-04-19T20:45:38.412Z,35.33
2023-04-19T20:48:20.118Z,35.59
2023-04-19T20:51:01.806Z,35.50
2023-04-19T20:53:43.500Z,35.65
2023-04-19T20:56:25.570Z,35.70
2023-04-19T20:59:07.355Z,35.64
2023-04-19T21:01:49.027Z,36.05
2023-04-19T21:04:30.845Z,36.17
2023-04-19T21:07:12.622Z,36.35
2023-04-19T21:09:54.202Z,36.69
2023-04-19T21:12:35.968Z,36.71
2023-04-19T21:14:57.643Z,36.65
2023-04-19T21:17:20.660Z,36.98
2023-04-19T21:19:42.411Z,37.03
2023-04-19T21:22:04.120Z,37.23
2023-04-19T21:24:26.210Z,36.78
2023-04-19T21:26:47.952Z,37.29
2023-04-19T21:29:11.557Z,36.91
2023-04-19T21:31:33.223Z,37.22
2023-04-19T21:33:54.898Z,37.05
2023-04-19T21:36:16.535Z,36.74
2023-04-19T21:38:38.160Z,37.09
2023-04-19T21:40:59.780Z,36.98
2023-04-19T21:43:23.179Z,37.21
2023-04-19T21:45:44.769Z,37.41
2023-04-19T21:48:06.552Z,36.99
2023-04-19T21:50:28.316Z,36.81
2023-04-19T21:52:49.957Z,37.02
2023-04-19T21:55:11.617Z,37.23
2023-04-19T21:57:33.299Z,37.53
2023-04-19T21:59:54.949Z,37.28
2023-04-19T22:02:17.154Z,37.60
2023-04-19T22:04:39.654Z,37.61
2023-04-19T22:07:02.629Z,37.66
2023-04-19T22:09:24.638Z,37.53
2023-04-19T22:11:47.128Z,37.40
2023-04-19T22:14:09.123Z,37.57
2023-04-19T22:16:32.732Z,37.58
2023-04-19T22:18:54.499Z,37.31
2023-04-19T22:21:16.163Z,37.12
2023-04-19T22:23:38.047Z,37.09
2023-04-19T22:26:00.239Z,37.13
2023-04-19T22:28:21.930Z,37.51
2023-04-19T22:30:43.529Z,37.00
2023-04-19T22:33:05.356Z,36.79
2023-04-19T22:35:27.280Z,37.22
2023-04-19T22:37:48.920Z,37.02
2023-04-19T22:40:12.066Z,37.08
2023-04-19T22:42:33.740Z,37.05
2023-04-19T22:44:55.509Z,37.03
2023-04-19T22:47:17.480Z,36.98
2023-04-19T22:49:43.027Z,37.01
2023-04-19T22:52:05.050Z,36.91
2023-04-19T22:54:26.926Z,36.80
2023-04-19T22:56:48.603Z,37.36
2023-04-19T22:59:10.556Z,37.19
2023-04-19T23:01:32.254Z,37.17
2023-04-19T23:03:53.950Z,37.12
2023-04-19T23:06:17.868Z,37.56
2023-04-19T23:08:40.335Z,37.36
2023-04-19T23:11:02.005Z,37.61
2023-04-19T23:13:23.745Z,37.86
2023-04-19T23:15:45.841Z,37.77
2023-04-19T23:18:07.730Z,37.84
2023-04-19T23:20:30.744Z,38.15
2023-04-19T23:22:52.406Z,38.06
2023-04-19T23:25:14.127Z,38.14
2023-04-19T23:27:36.240Z,37.63
2023-04-19T23:29:57.877Z,38.13
2023-04-19T23:32:19.699Z,38.18
2023-04-19T23:34:41.466Z,38.20
2023-04-19T23:37:03.186Z,38.13
2023-04-19T23:39:24.933Z,38.73
2023-04-19T23:41:46.552Z,38.05
2023-04-19T23:44:08.251Z,38.13
2023-04-19T23:46:29.920Z,38.29
2023-04-19T23:48:51.581Z,38.76
2023-04-19T23:51:14.634Z,38.40
2023-04-19T23:53:36.325Z,38.25
2023-04-19T23:55:57.956Z,38.37
2023-04-19T23:58:19.701Z,38.46
